sensor_id;sensor_type;location;lat;lon;timestamp;pressure;altitude;pressure_sealevel;temperature;humidity
62710;BME280;48770;51.624;5.886;2023-06-14T00:02:16;101295.59;;;25.70;28.39
62710;BME280;48770;51.624;5.886;2023-06-14T00:04:41;101293.97;;;25.69;28.38
62710;BME280;48770;51.624;5.886;2023-06-14T00:07:08;101295.88;;;25.65;28.17
62710;BME280;48770;51.624;5.886;2023-06-14T00:09:34;101295.44;;;25.63;28.36
62710;BME280;48770;51.624;5.886;2023-06-14T00:12:00;101293.78;;;25.58;28.32
62710;BME280;48770;51.624;5.886;2023-06-14T00:14:25;101294.53;;;25.55;28.37
62710;BME280;48770;51.624;5.886;2023-06-14T00:16:51;101300.41;;;25.50;28.14
62710;BME280;48770;51.624;5.886;2023-06-14T00:19:18;101295.13;;;25.45;28.40
62710;BME280;48770;51.624;5.886;2023-06-14T00:21:44;101301.13;;;25.43;28.41
62710;BME280;48770;51.624;5.886;2023-06-14T00:24:10;101299.50;;;25.42;28.21
62710;BME280;48770;51.624;5.886;2023-06-14T00:26:36;101298.63;;;25.38;28.09
62710;BME280;48770;51.624;5.886;2023-06-14T00:29:01;101294.59;;;25.36;27.97
62710;BME280;48770;51.624;5.886;2023-06-14T00:31:26;101297.75;;;25.34;27.88
62710;BME280;48770;51.624;5.886;2023-06-14T00:33:52;101297.31;;;25.32;27.87
62710;BME280;48770;51.624;5.886;2023-06-14T00:36:17;101296.47;;;25.28;27.97
62710;BME280;48770;51.624;5.886;2023-06-14T00:38:42;101304.78;;;25.25;27.85
62710;BME280;48770;51.624;5.886;2023-06-14T00:41:08;101297.53;;;25.24;27.71
62710;BME280;48770;51.624;5.886;2023-06-14T00:43:33;101301.91;;;25.21;27.99
62710;BME280;48770;51.624;5.886;2023-06-14T00:46:00;101306.31;;;25.22;27.92
62710;BME280;48770;51.624;5.886;2023-06-14T00:48:25;101305.44;;;25.18;27.61
62710;BME280;48770;51.624;5.886;2023-06-14T00:50:51;101305.00;;;25.16;28.00
62710;BME280;48770;51.624;5.886;2023-06-14T00:53:18;101310.16;;;25.14;28.11
62710;BME280;48770;51.624;5.886;2023-06-14T00:55:44;101314.16;;;25.13;28.01
62710;BME280;48770;51.624;5.886;2023-06-14T00:58:10;101310.91;;;25.11;27.93
62710;BME280;48770;51.624;5.886;2023-06-14T01:00:35;101318.06;;;25.08;27.69
62710;BME280;48770;51.624;5.886;2023-06-14T01:03:01;101315.63;;;25.07;27.74
62710;BME280;48770;51.624;5.886;2023-06-14T01:05:27;101321.59;;;25.05;27.55
62710;BME280;48770;51.624;5.886;2023-06-14T01:08:30;101319.56;;;25.02;27.64
62710;BME280;48770;51.624;5.886;2023-06-14T01:11:10;101314.19;;;24.97;27.91
62710;BME280;48770;51.624;5.886;2023-06-14T01:13:43;101323.78;;;24.96;27.53
62710;BME280;48770;51.624;5.886;2023-06-14T01:16:11;101310.97;;;24.95;27.93
62710;BME280;48770;51.624;5.886;2023-06-14T01:18:37;101321.72;;;24.93;27.78
62710;BME280;48770;51.624;5.886;2023-06-14T01:21:02;101318.84;;;24.89;27.51
62710;BME280;48770;51.624;5.886;2023-06-14T01:23:32;101320.03;;;24.88;27.67
62710;BME280;48770;51.624;5.886;2023-06-14T01:25:58;101318.34;;;24.84;27.70
62710;BME280;48770;51.624;5.886;2023-06-14T01:28:25;101318.72;;;24.82;27.45
62710;BME280;48770;51.624;5.886;2023-06-14T01:30:59;101319.88;;;24.81;27.85
62710;BME280;48770;51.624;5.886;2023-06-14T01:33:27;101318.28;;;24.80;27.57
62710;BME280;48770;51.624;5.886;2023-06-14T01:35:53;101319.44;;;24.79;27.84
62710;BME280;48770;51.624;5.886;2023-06-14T01:38:22;101319.00;;;24.77;27.86
62710;BME280;48770;51.624;5.886;2023-06-14T01:40:48;101318.56;;;24.75;27.58
62710;BME280;48770;51.624;5.886;2023-06-14T01:43:16;101320.56;;;24.75;27.70
62710;BME280;48770;51.624;5.886;2023-06-14T01:45:42;101320.13;;;24.73;27.86
62710;BME280;48770;51.624;5.886;2023-06-14T01:48:09;101324.44;;;24.70;28.04
62710;BME280;48770;51.624;5.886;2023-06-14T01:50:35;101325.16;;;24.67;27.81
62710;BME280;48770;51.624;5.886;2023-06-14T01:53:00;101322.75;;;24.66;27.61
62710;BME280;48770;51.624;5.886;2023-06-14T01:55:26;101329.88;;;24.63;28.01
62710;BME280;48770;51.624;5.886;2023-06-14T01:57:52;101325.47;;;24.62;27.84
62710;BME280;48770;51.624;5.886;2023-06-14T02:00:18;101316.63;;;24.60;28.22
62710;BME280;48770;51.624;5.886;2023-06-14T02:02:44;101320.97;;;24.57;27.94
62710;BME280;48770;51.624;5.886;2023-06-14T02:05:09;101322.97;;;24.57;28.19
62710;BME280;48770;51.624;5.886;2023-06-14T02:07:35;101317.31;;;24.53;28.43
62710;BME280;48770;51.624;5.886;2023-06-14T02:10:01;101314.88;;;24.52;28.33
62710;BME280;48770;51.624;5.886;2023-06-14T02:12:26;101315.63;;;24.49;27.89
62710;BME280;48770;51.624;5.886;2023-06-14T02:14:51;101322.38;;;24.48;28.37
62710;BME280;48770;51.624;5.886;2023-06-14T02:17:17;101310.28;;;24.44;27.92
62710;BME280;48770;51.624;5.886;2023-06-14T02:19:42;101311.84;;;24.41;28.35
62710;BME280;48770;51.624;5.886;2023-06-14T02:22:07;101303.00;;;24.39;28.54
62710;BME280;48770;51.624;5.886;2023-06-14T02:24:33;101315.34;;;24.38;28.64
62710;BME280;48770;51.624;5.886;2023-06-14T02:26:58;101309.69;;;24.35;28.63
62710;BME280;48770;51.624;5.886;2023-06-14T02:29:23;101322.06;;;24.34;28.66
62710;BME280;48770;51.624;5.886;2023-06-14T02:31:48;101315.56;;;24.29;28.25
62710;BME280;48770;51.624;5.886;2023-06-14T02:34:14;101320.34;;;24.29;28.50
62710;BME280;48770;51.624;5.886;2023-06-14T02:36:42;101318.75;;;24.28;28.49
62710;BME280;48770;51.624;5.886;2023-06-14T02:39:08;101321.06;;;24.26;28.64
62710;BME280;48770;51.624;5.886;2023-06-14T02:41:36;101322.59;;;24.23;29.07
62710;BME280;48770;51.624;5.886;2023-06-14T02:44:02;101324.13;;;24.21;28.65
62710;BME280;48770;51.624;5.886;2023-06-14T02:46:27;101330.06;;;24.19;28.70
62710;BME280;48770;51.624;5.886;2023-06-14T02:48:52;101326.00;;;24.17;28.79
62710;BME280;48770;51.624;5.886;2023-06-14T02:51:18;101323.59;;;24.15;29.17
62710;BME280;48770;51.624;5.886;2023-06-14T02:53:43;101323.50;;;24.12;28.87
62710;BME280;48770;51.624;5.886;2023-06-14T02:56:09;101327.47;;;24.11;29.49
62710;BME280;48770;51.624;5.886;2023-06-14T02:58:36;101335.03;;;24.10;29.11
62710;BME280;48770;51.624;5.886;2023-06-14T03:01:01;101326.59;;;24.07;29.24
62710;BME280;48770;51.624;5.886;2023-06-14T03:03:29;101337.75;;;24.07;29.04
62710;BME280;48770;51.624;5.886;2023-06-14T03:05:55;101331.72;;;24.05;29.05
62710;BME280;48770;51.624;5.886;2023-06-14T03:08:20;101334.06;;;24.03;29.44
62710;BME280;48770;51.624;5.886;2023-06-14T03:10:46;101341.19;;;24.00;29.35
62710;BME280;48770;51.624;5.886;2023-06-14T03:13:15;101339.13;;;23.97;29.58
62710;BME280;48770;51.624;5.886;2023-06-14T03:15:44;101340.66;;;23.94;29.66
62710;BME280;48770;51.624;5.886;2023-06-14T03:18:10;101338.56;;;23.91;29.88
62710;BME280;48770;51.624;5.886;2023-06-14T03:20:36;101340.91;;;23.89;29.69
62710;BME280;48770;51.624;5.886;2023-06-14T03:23:02;101354.81;;;23.86;29.71
62710;BME280;48770;51.624;5.886;2023-06-14T03:25:28;101356.78;;;23.85;29.73
62710;BME280;48770;51.624;5.886;2023-06-14T03:27:55;101354.34;;;23.84;29.84
62710;BME280;48770;51.624;5.886;2023-06-14T03:30:21;101354.72;;;23.82;29.68
62710;BME280;48770;51.624;5.886;2023-06-14T03:32:46;101359.84;;;23.80;30.16
62710;BME280;48770;51.624;5.886;2023-06-14T03:35:12;101372.19;;;23.79;30.22
62710;BME280;48770;51.624;5.886;2023-06-14T03:37:43;101364.53;;;23.76;29.95
62710;BME280;48770;51.624;5.886;2023-06-14T03:40:08;101370.13;;;23.76;30.30
62710;BME280;48770;51.624;5.886;2023-06-14T03:42:34;101368.88;;;23.74;29.97
62710;BME280;48770;51.624;5.886;2023-06-14T03:44:59;101365.16;;;23.70;30.48
62710;BME280;48770;51.624;5.886;2023-06-14T03:47:25;101374.72;;;23.68;30.27
62710;BME280;48770;51.624;5.886;2023-06-14T03:49:50;101379.00;;;23.66;30.24
62710;BME280;48770;51.624;5.886;2023-06-14T03:52:15;101371.00;;;23.64;30.14
62710;BME280;48770;51.624;5.886;2023-06-14T03:54:42;101372.16;;;23.63;30.01
62710;BME280;48770;51.624;5.886;2023-06-14T03:57:09;101383.34;;;23.63;30.09
62710;BME280;48770;51.624;5.886;2023-06-14T03:59:35;101374.50;;;23.61;30.32
62710;BME280;48770;51.624;5.886;2023-06-14T04:02:02;101377.66;;;23.60;30.35
62710;BME280;48770;51.624;5.886;2023-06-14T04:04:27;101378.84;;;23.59;30.07
62710;BME280;48770;51.624;5.886;2023-06-14T04:06:55;101374.78;;;23.56;30.17
62710;BME280;48770;51.624;5.886;2023-06-14T04:09:23;101381.97;;;23.57;30.62
62710;BME280;48770;51.624;5.886;2023-06-14T04:11:52;101381.50;;;23.55;30.42
62710;BME280;48770;51.624;5.886;2023-06-14T04:14:19;101385.47;;;23.54;30.56
62710;BME280;48770;51.624;5.886;2023-06-14T04:16:46;101393.38;;;23.52;30.38
62710;BME280;48770;51.624;5.886;2023-06-14T04:19:11;101398.16;;;23.52;30.20
62710;BME280;48770;51.624;5.886;2023-06-14T04:21:36;101395.72;;;23.50;30.24
62710;BME280;48770;51.624;5.886;2023-06-14T04:24:02;101392.94;;;23.50;30.32
62710;BME280;48770;51.624;5.886;2023-06-14T04:26:28;101393.75;;;23.51;30.48
62710;BME280;48770;51.624;5.886;2023-06-14T04:28:55;101392.94;;;23.50;30.80
62710;BME280;48770;51.624;5.886;2023-06-14T04:31:22;101398.16;;;23.52;30.45
62710;BME280;48770;51.624;5.886;2023-06-14T04:33:50;101401.31;;;23.50;30.65
62710;BME280;48770;51.624;5.886;2023-06-14T04:36:18;101401.31;;;23.50;30.61
62710;BME280;48770;51.624;5.886;2023-06-14T04:38:44;101400.94;;;23.52;30.81
62710;BME280;48770;51.624;5.886;2023-06-14T04:41:10;101402.13;;;23.51;30.99
62710;BME280;48770;51.624;5.886;2023-06-14T04:43:37;101403.38;;;23.53;31.10
62710;BME280;48770;51.624;5.886;2023-06-14T04:46:06;101408.16;;;23.53;30.66
62710;BME280;48770;51.624;5.886;2023-06-14T04:48:39;101407.34;;;23.52;31.17
62710;BME280;48770;51.624;5.886;2023-06-14T04:51:06;101408.59;;;23.55;30.97
62710;BME280;48770;51.624;5.886;2023-06-14T04:53:32;101411.53;;;23.58;30.99
62710;BME280;48770;51.624;5.886;2023-06-14T04:55:57;101407.56;;;23.59;31.20
62710;BME280;48770;51.624;5.886;2023-06-14T04:58:22;101405.22;;;23.61;31.09
62710;BME280;48770;51.624;5.886;2023-06-14T05:00:48;101411.69;;;23.65;31.05
62710;BME280;48770;51.624;5.886;2023-06-14T05:03:13;101406.94;;;23.66;31.12
62710;BME280;48770;51.624;5.886;2023-06-14T05:05:40;101411.34;;;23.67;30.56
62710;BME280;48770;51.624;5.886;2023-06-14T05:08:06;101412.16;;;23.67;30.87
62710;BME280;48770;51.624;5.886;2023-06-14T05:10:31;101421.00;;;23.70;30.82
62710;BME280;48770;51.624;5.886;2023-06-14T05:12:56;101425.53;;;23.74;30.90
62710;BME280;48770;51.624;5.886;2023-06-14T05:15:22;101431.19;;;23.78;30.71
62710;BME280;48770;51.624;5.886;2023-06-14T05:17:50;101424.06;;;23.80;30.85
62710;BME280;48770;51.624;5.886;2023-06-14T05:20:21;101423.34;;;23.83;30.62
62710;BME280;48770;51.624;5.886;2023-06-14T05:22:47;101421.38;;;23.84;30.82
62710;BME280;48770;51.624;5.886;2023-06-14T05:25:15;101431.00;;;23.86;30.81
62710;BME280;48770;51.624;5.886;2023-06-14T05:27:40;101437.41;;;23.87;30.80
62710;BME280;48770;51.624;5.886;2023-06-14T05:30:07;101435.06;;;23.89;30.88
62710;BME280;48770;51.624;5.886;2023-06-14T05:32:33;101435.53;;;23.91;30.90
62710;BME280;48770;51.624;5.886;2023-06-14T05:34:59;101442.72;;;23.92;30.75
62710;BME280;48770;51.624;5.886;2023-06-14T05:37:24;101445.16;;;23.93;31.26
62710;BME280;48770;51.624;5.886;2023-06-14T05:39:50;101444.00;;;23.94;31.26
62710;BME280;48770;51.624;5.886;2023-06-14T05:42:15;101444.00;;;23.94;30.80
62710;BME280;48770;51.624;5.886;2023-06-14T05:44:40;101446.81;;;23.94;31.46
62710;BME280;48770;51.624;5.886;2023-06-14T05:47:06;101449.25;;;23.96;31.00
62710;BME280;48770;51.624;5.886;2023-06-14T05:49:31;101451.69;;;23.97;31.25
62710;BME280;48770;51.624;5.886;2023-06-14T05:51:56;101446.53;;;23.99;31.24
62710;BME280;48770;51.624;5.886;2023-06-14T05:54:22;101447.78;;;24.02;30.93
62710;BME280;48770;51.624;5.886;2023-06-14T05:56:47;101454.66;;;24.05;31.04
62710;BME280;48770;51.624;5.886;2023-06-14T05:59:12;101462.66;;;24.06;30.75
62710;BME280;48770;51.624;5.886;2023-06-14T06:01:37;101465.09;;;24.08;30.68
62710;BME280;48770;51.624;5.886;2023-06-14T06:04:05;101469.16;;;24.10;31.08
62710;BME280;48770;51.624;5.886;2023-06-14T06:06:30;101473.28;;;24.16;30.82
62710;BME280;48770;51.624;5.886;2023-06-14T06:08:56;101459.53;;;24.23;30.96
62710;BME280;48770;51.624;5.886;2023-06-14T06:11:21;101464.94;;;24.32;31.12
62710;BME280;48770;51.624;5.886;2023-06-14T06:13:46;101471.53;;;24.40;31.05
62710;BME280;48770;51.624;5.886;2023-06-14T06:16:12;101472.53;;;24.47;30.96
62710;BME280;48770;51.624;5.886;2023-06-14T06:18:37;101475.50;;;24.54;31.16
62710;BME280;48770;51.624;5.886;2023-06-14T06:21:04;101474.13;;;24.64;31.20
62710;BME280;48770;51.624;5.886;2023-06-14T06:23:29;101465.06;;;24.71;31.26
62710;BME280;48770;51.624;5.886;2023-06-14T06:25:55;101477.25;;;24.78;31.43
62710;BME280;48770;51.624;5.886;2023-06-14T06:28:20;101476.97;;;24.83;31.50
62710;BME280;48770;51.624;5.886;2023-06-14T06:30:45;101472.72;;;24.89;31.67
62710;BME280;48770;51.624;5.886;2023-06-14T06:33:11;101475.66;;;24.97;31.64
62710;BME280;48770;51.624;5.886;2023-06-14T06:35:37;101477.84;;;25.03;31.70
62710;BME280;48770;51.624;5.886;2023-06-14T06:38:02;101476.31;;;25.06;31.82
62710;BME280;48770;51.624;5.886;2023-06-14T06:40:28;101482.41;;;25.11;31.55
62710;BME280;48770;51.624;5.886;2023-06-14T06:42:53;101489.72;;;25.16;31.56
62710;BME280;48770;51.624;5.886;2023-06-14T06:45:19;101488.25;;;25.22;31.60
62710;BME280;48770;51.624;5.886;2023-06-14T06:47:45;101490.34;;;25.25;31.60
62710;BME280;48770;51.624;5.886;2023-06-14T06:50:10;101496.81;;;25.29;31.47
62710;BME280;48770;51.624;5.886;2023-06-14T06:52:35;101494.91;;;25.33;31.50
62710;BME280;48770;51.624;5.886;2023-06-14T06:55:01;101499.75;;;25.36;31.37
62710;BME280;48770;51.624;5.886;2023-06-14T06:57:27;101502.69;;;25.43;31.52
62710;BME280;48770;51.624;5.886;2023-06-14T06:59:54;101499.97;;;25.47;31.47
62710;BME280;48770;51.624;5.886;2023-06-14T07:02:19;101510.78;;;25.48;31.42
62710;BME280;48770;51.624;5.886;2023-06-14T07:04:45;101500.50;;;25.52;31.77
62710;BME280;48770;51.624;5.886;2023-06-14T07:07:10;101512.59;;;25.57;31.48
62710;BME280;48770;51.624;5.886;2023-06-14T07:09:36;101512.66;;;25.60;31.66
62710;BME280;48770;51.624;5.886;2023-06-14T07:12:01;101513.91;;;25.63;31.42
62710;BME280;48770;51.624;5.886;2023-06-14T07:14:27;101520.75;;;25.65;31.30
62710;BME280;48770;51.624;5.886;2023-06-14T07:16:52;101515.25;;;25.69;31.19
62710;BME280;48770;51.624;5.886;2023-06-14T07:19:17;101517.31;;;25.72;31.26
62710;BME280;48770;51.624;5.886;2023-06-14T07:21:43;101524.97;;;25.75;31.49
62710;BME280;48770;51.624;5.886;2023-06-14T07:24:08;101526.59;;;25.76;31.28
62710;BME280;48770;51.624;5.886;2023-06-14T07:26:34;101520.28;;;25.79;31.17
62710;BME280;48770;51.624;5.886;2023-06-14T07:28:59;101521.53;;;25.81;31.18
62710;BME280;48770;51.624;5.886;2023-06-14T07:31:25;101523.19;;;25.86;31.20
62710;BME280;48770;51.624;5.886;2023-06-14T07:33:51;101527.25;;;25.89;31.13
62710;BME280;48770;51.624;5.886;2023-06-14T07:36:17;101524.88;;;25.91;31.27
62710;BME280;48770;51.624;5.886;2023-06-14T07:38:43;101537.34;;;25.93;31.04
62710;BME280;48770;51.624;5.886;2023-06-14T07:41:08;101526.56;;;25.95;30.74
62710;BME280;48770;51.624;5.886;2023-06-14T07:43:33;101532.63;;;25.97;31.22
62710;BME280;48770;51.624;5.886;2023-06-14T07:45:59;101523.47;;;26.00;31.17
62710;BME280;48770;51.624;5.886;2023-06-14T07:48:25;101531.50;;;26.02;31.19
62710;BME280;48770;51.624;5.886;2023-06-14T07:50:50;101531.16;;;26.03;31.16
62710;BME280;48770;51.624;5.886;2023-06-14T07:53:15;101537.19;;;26.05;31.24
62710;BME280;48770;51.624;5.886;2023-06-14T07:55:41;101537.63;;;26.07;31.35
62710;BME280;48770;51.624;5.886;2023-06-14T07:58:08;101536.88;;;26.10;31.04
62710;BME280;48770;51.624;5.886;2023-06-14T08:00:33;101543.72;;;26.13;31.12
62710;BME280;48770;51.624;5.886;2023-06-14T08:02:59;101549.78;;;26.15;31.08
62710;BME280;48770;51.624;5.886;2023-06-14T08:05:25;101543.78;;;26.17;31.06
62710;BME280;48770;51.624;5.886;2023-06-14T08:07:51;101541.44;;;26.19;30.98
62710;BME280;48770;51.624;5.886;2023-06-14T08:10:16;101541.88;;;26.21;31.02
62710;BME280;48770;51.624;5.886;2023-06-14T08:12:42;101544.28;;;26.22;31.13
62710;BME280;48770;51.624;5.886;2023-06-14T08:15:08;101540.31;;;26.23;31.06
62710;BME280;48770;51.624;5.886;2023-06-14T08:17:34;101541.53;;;26.26;31.04
62710;BME280;48770;51.624;5.886;2023-06-14T08:19:59;101546.78;;;26.27;31.11
62710;BME280;48770;51.624;5.886;2023-06-14T08:22:24;101543.63;;;26.29;31.15
62710;BME280;48770;51.624;5.886;2023-06-14T08:24:50;101540.44;;;26.30;31.42
62710;BME280;48770;51.624;5.886;2023-06-14T08:27:16;101549.31;;;26.32;30.87
62710;BME280;48770;51.624;5.886;2023-06-14T08:29:41;101543.34;;;26.34;31.34
62710;BME280;48770;51.624;5.886;2023-06-14T08:32:07;101552.56;;;26.34;31.26
62710;BME280;48770;51.624;5.886;2023-06-14T08:34:32;101550.19;;;26.36;31.14
62710;BME280;48770;51.624;5.886;2023-06-14T08:36:57;101552.63;;;26.38;31.06
62710;BME280;48770;51.624;5.886;2023-06-14T08:39:23;101551.06;;;26.40;30.95
62710;BME280;48770;51.624;5.886;2023-06-14T08:41:49;101548.25;;;26.40;31.17
62710;BME280;48770;51.624;5.886;2023-06-14T08:44:16;101545.53;;;26.44;31.16
62710;BME280;48770;51.624;5.886;2023-06-14T08:46:42;101548.75;;;26.46;31.35
62710;BME280;48770;51.624;5.886;2023-06-14T08:49:08;101546.75;;;26.47;31.34
62710;BME280;48770;51.624;5.886;2023-06-14T08:51:36;101544.78;;;26.47;31.07
62710;BME280;48770;51.624;5.886;2023-06-14T08:54:02;101543.59;;;26.48;31.09
62710;BME280;48770;51.624;5.886;2023-06-14T08:56:29;101551.63;;;26.50;31.17
62710;BME280;48770;51.624;5.886;2023-06-14T08:58:58;101543.63;;;26.52;31.28
62710;BME280;48770;51.624;5.886;2023-06-14T09:01:28;101549.25;;;26.52;31.15
62710;BME280;48770;51.624;5.886;2023-06-14T09:03:53;101542.44;;;26.53;31.14
62710;BME280;48770;51.624;5.886;2023-06-14T09:06:22;101542.06;;;26.54;31.39
62710;BME280;48770;51.624;5.886;2023-06-14T09:08:48;101533.31;;;26.56;31.33
62710;BME280;48770;51.624;5.886;2023-06-14T09:11:15;101547.78;;;26.58;31.26
62710;BME280;48770;51.624;5.886;2023-06-14T09:13:42;101541.78;;;26.59;31.11
62710;BME280;48770;51.624;5.886;2023-06-14T09:16:08;101541.41;;;26.61;31.20
62710;BME280;48770;51.624;5.886;2023-06-14T09:18:39;101544.22;;;26.61;31.23
62710;BME280;48770;51.624;5.886;2023-06-14T09:21:07;101550.63;;;26.61;31.41
62710;BME280;48770;51.624;5.886;2023-06-14T09:23:40;101553.88;;;26.63;31.19
62710;BME280;48770;51.624;5.886;2023-06-14T09:26:10;101556.28;;;26.65;31.19
62710;BME280;48770;51.624;5.886;2023-06-14T09:28:37;101536.28;;;26.66;31.30
62710;BME280;48770;51.624;5.886;2023-06-14T09:31:07;101544.31;;;26.68;31.47
62710;BME280;48770;51.624;5.886;2023-06-14T09:33:33;101545.94;;;26.69;31.64
62710;BME280;48770;51.624;5.886;2023-06-14T09:35:59;101541.94;;;26.70;31.53
62710;BME280;48770;51.624;5.886;2023-06-14T09:38:24;101551.19;;;26.70;31.29
62710;BME280;48770;51.624;5.886;2023-06-14T09:40:50;101550.78;;;26.72;31.59
62710;BME280;48770;51.624;5.886;2023-06-14T09:43:16;101543.19;;;26.72;31.55
62710;BME280;48770;51.624;5.886;2023-06-14T09:45:42;101542.81;;;26.74;31.43
62710;BME280;48770;51.624;5.886;2023-06-14T09:48:14;101554.84;;;26.74;31.49
62710;BME280;48770;51.624;5.886;2023-06-14T09:50:45;101551.22;;;26.74;31.70
62710;BME280;48770;51.624;5.886;2023-06-14T09:53:11;101548.03;;;26.76;31.53
62710;BME280;48770;51.624;5.886;2023-06-14T09:55:40;101542.06;;;26.77;31.36
62710;BME280;48770;51.624;5.886;2023-06-14T09:58:07;101542.06;;;26.77;31.48
62710;BME280;48770;51.624;5.886;2023-06-14T10:00:33;101544.47;;;26.79;31.36
62710;BME280;48770;51.624;5.886;2023-06-14T10:03:13;101546.47;;;26.78;31.24
62710;BME280;48770;51.624;5.886;2023-06-14T10:05:41;101548.91;;;26.80;31.48
62710;BME280;48770;51.624;5.886;2023-06-14T10:08:19;101542.47;;;26.79;31.43
62710;BME280;48770;51.624;5.886;2023-06-14T10:10:49;101549.72;;;26.80;31.79
62710;BME280;48770;51.624;5.886;2023-06-14T10:13:15;101538.16;;;26.82;31.49
62710;BME280;48770;51.624;5.886;2023-06-14T10:16:05;101543.38;;;26.83;31.12
62710;BME280;48770;51.624;5.886;2023-06-14T10:21:13;101549.81;;;26.84;31.28
62710;BME280;48770;51.624;5.886;2023-06-14T10:23:42;101549.81;;;26.84;31.09
62710;BME280;48770;51.624;5.886;2023-06-14T10:26:18;101536.19;;;26.86;31.27
62710;BME280;48770;51.624;5.886;2023-06-14T10:29:15;101540.63;;;26.87;31.40
62710;BME280;48770;51.624;5.886;2023-06-14T10:31:42;101535.00;;;26.87;31.34
62710;BME280;48770;51.624;5.886;2023-06-14T10:34:08;101534.63;;;26.88;31.17
62710;BME280;48770;51.624;5.886;2023-06-14T10:36:33;101536.25;;;26.89;31.03
62710;BME280;48770;51.624;5.886;2023-06-14T10:41:34;101541.09;;;26.92;31.46
62710;BME280;48770;51.624;5.886;2023-06-14T10:46:38;101547.53;;;26.93;31.36
62710;BME280;48770;51.624;5.886;2023-06-14T10:49:04;101551.94;;;26.94;31.48
62710;BME280;48770;51.624;5.886;2023-06-14T10:51:38;101540.72;;;26.94;31.31
62710;BME280;48770;51.624;5.886;2023-06-14T10:54:12;101545.16;;;26.95;31.17
62710;BME280;48770;51.624;5.886;2023-06-14T10:59:13;101544.78;;;26.96;31.35
62710;BME280;48770;51.624;5.886;2023-06-14T11:04:50;101539.97;;;26.97;31.43
62710;BME280;48770;51.624;5.886;2023-06-14T11:07:43;101537.97;;;26.97;31.37
62710;BME280;48770;51.624;5.886;2023-06-14T11:10:26;101528.34;;;26.98;31.23
62710;BME280;48770;51.624;5.886;2023-06-14T11:12:56;101536.78;;;26.98;31.64
62710;BME280;48770;51.624;5.886;2023-06-14T11:15:35;101537.25;;;27.00;31.60
62710;BME280;48770;51.624;5.886;2023-06-14T11:18:02;101535.25;;;27.01;31.71
62710;BME280;48770;51.624;5.886;2023-06-14T11:20:30;101540.09;;;27.04;31.75
62710;BME280;48770;51.624;5.886;2023-06-14T11:22:56;101551.31;;;27.04;31.45
62710;BME280;48770;51.624;5.886;2023-06-14T11:25:21;101541.72;;;27.05;31.46
62710;BME280;48770;51.624;5.886;2023-06-14T11:27:49;101548.94;;;27.06;31.58
62710;BME280;48770;51.624;5.886;2023-06-14T11:30:15;101545.78;;;27.08;31.79
62710;BME280;48770;51.624;5.886;2023-06-14T11:32:40;101535.38;;;27.08;31.96
62710;BME280;48770;51.624;5.886;2023-06-14T11:35:06;101536.97;;;27.09;32.06
62710;BME280;48770;51.624;5.886;2023-06-14T11:37:33;101540.22;;;27.11;31.96
62710;BME280;48770;51.624;5.886;2023-06-14T11:39:59;101527.00;;;27.12;31.71
62710;BME280;48770;51.624;5.886;2023-06-14T11:42:28;101525.00;;;27.12;31.84
62710;BME280;48770;51.624;5.886;2023-06-14T11:44:54;101534.22;;;27.13;31.92
62710;BME280;48770;51.624;5.886;2023-06-14T11:47:20;101528.22;;;27.14;31.50
62710;BME280;48770;51.624;5.886;2023-06-14T11:49:46;101531.84;;;27.15;31.56
62710;BME280;48770;51.624;5.886;2023-06-14T11:52:12;101540.69;;;27.17;31.72
62710;BME280;48770;51.624;5.886;2023-06-14T11:54:37;101547.13;;;27.17;31.78
62710;BME280;48770;51.624;5.886;2023-06-14T11:57:06;101545.94;;;27.18;31.67
62710;BME280;48770;51.624;5.886;2023-06-14T11:59:32;101550.72;;;27.18;31.84
62710;BME280;48770;51.624;5.886;2023-06-14T12:01:57;101540.31;;;27.18;32.12
62710;BME280;48770;51.624;5.886;2023-06-14T12:04:29;101547.53;;;27.19;31.52
62710;BME280;48770;51.624;5.886;2023-06-14T12:06:55;101544.75;;;27.19;31.54
62710;BME280;48770;51.624;5.886;2023-06-14T12:09:23;101539.56;;;27.21;31.59
62710;BME280;48770;51.624;5.886;2023-06-14T12:11:51;101545.97;;;27.22;31.68
62710;BME280;48770;51.624;5.886;2023-06-14T12:14:28;101534.75;;;27.22;31.59
62710;BME280;48770;51.624;5.886;2023-06-14T12:17:04;101532.75;;;27.22;31.91
62710;BME280;48770;51.624;5.886;2023-06-14T12:19:30;101529.13;;;27.22;31.88
62710;BME280;48770;51.624;5.886;2023-06-14T12:21:59;101535.56;;;27.22;32.05
62710;BME280;48770;51.624;5.886;2023-06-14T12:24:28;101527.56;;;27.24;31.59
62710;BME280;48770;51.624;5.886;2023-06-14T12:26:57;101528.75;;;27.23;31.93
62710;BME280;48770;51.624;5.886;2023-06-14T12:29:22;101538.78;;;27.24;31.79
62710;BME280;48770;51.624;5.886;2023-06-14T12:31:49;101541.22;;;27.26;31.64
62710;BME280;48770;51.624;5.886;2023-06-14T12:34:14;101534.78;;;27.25;31.88
62710;BME280;48770;51.624;5.886;2023-06-14T12:36:39;101531.97;;;27.25;31.70
62710;BME280;48770;51.624;5.886;2023-06-14T12:39:09;101533.59;;;27.26;31.79
62710;BME280;48770;51.624;5.886;2023-06-14T12:41:34;101535.22;;;27.27;31.77
62710;BME280;48770;51.624;5.886;2023-06-14T12:43:59;101539.63;;;27.28;31.78
62710;BME280;48770;51.624;5.886;2023-06-14T12:46:30;101517.97;;;27.29;31.74
62710;BME280;48770;51.624;5.886;2023-06-14T12:48:56;101521.59;;;27.29;31.65
62710;BME280;48770;51.624;5.886;2023-06-14T12:51:21;101540.88;;;27.31;31.62
62710;BME280;48770;51.624;5.886;2023-06-14T12:53:47;101529.28;;;27.32;31.65
62710;BME280;48770;51.624;5.886;2023-06-14T12:56:14;101530.91;;;27.33;31.55
62710;BME280;48770;51.624;5.886;2023-06-14T12:58:41;101528.53;;;27.36;31.79
62710;BME280;48770;51.624;5.886;2023-06-14T13:01:06;101525.34;;;27.37;31.66
62710;BME280;48770;51.624;5.886;2023-06-14T13:03:32;101528.94;;;27.38;31.62